createdAt,value
2023-03-31T00:00:51.512Z,11.90
2023-03-31T00:03:22.111Z,11.90
2023-03-31T00:05:53.613Z,11.90
2023-03-31T00:08:21.432Z,11.90
2023-03-31T00:10:49.143Z,12.00
2023-03-31T00:13:16.600Z,11.90
2023-03-31T00:15:44.411Z,11.70
2023-03-31T00:18:11.563Z,11.60
2023-03-31T00:20:38.730Z,11.70
2023-03-31T00:23:11.109Z,11.80
2023-03-31T00:25:41.952Z,11.80
2023-03-31T00:28:09.068Z,11.80
2023-03-31T00:30:36.237Z,11.70
2023-03-31T00:33:03.539Z,11.50
2023-03-31T00:35:32.468Z,11.40
2023-03-31T00:37:59.910Z,11.40
2023-03-31T00:40:27.145Z,11.40
2023-03-31T00:42:54.223Z,11.30
2023-03-31T00:45:27.829Z,11.30
2023-03-31T00:48:15.095Z,11.30
2023-03-31T00:50:56.248Z,11.20
2023-03-31T00:53:29.187Z,11.10
2023-03-31T00:56:02.011Z,11.00
2023-03-31T00:58:29.901Z,11.00
2023-03-31T01:00:58.585Z,11.10
2023-03-31T01:03:26.571Z,11.00
2023-03-31T01:06:04.352Z,11.00
2023-03-31T01:08:36.656Z,10.90
2023-03-31T01:11:07.269Z,10.80
2023-03-31T01:13:39.949Z,10.70
2023-03-31T01:16:09.991Z,10.80
2023-03-31T01:18:37.505Z,10.80
2023-03-31T01:21:47.368Z,10.80
2023-03-31T01:24:53.514Z,10.60
2023-03-31T01:27:55.539Z,10.70
2023-03-31T01:31:02.223Z,10.60
2023-03-31T01:34:13.943Z,10.70
2023-03-31T01:37:21.603Z,10.70
2023-03-31T01:40:11.729Z,10.60
2023-03-31T01:43:12.014Z,10.70
2023-03-31T01:46:09.023Z,10.60
2023-03-31T01:49:02.921Z,10.60
2023-03-31T01:51:58.215Z,10.50
2023-03-31T01:57:39.549Z,10.50
2023-03-31T02:00:14.326Z,10.40
2023-03-31T02:03:08.069Z,10.50
2023-03-31T02:05:55.175Z,10.50
2023-03-31T02:08:44.512Z,10.50
2023-03-31T02:11:12.350Z,10.60
2023-03-31T02:13:45.685Z,10.60
2023-03-31T02:16:19.163Z,10.50
2023-03-31T02:18:48.554Z,10.30
2023-03-31T02:21:16.995Z,10.40
2023-03-31T02:23:45.841Z,10.30
2023-03-31T02:26:19.037Z,10.20
2023-03-31T02:28:46.735Z,10.30
2023-03-31T02:31:46.591Z,10.30
2023-03-31T02:34:13.869Z,10.20
2023-03-31T02:36:42.780Z,10.30
2023-03-31T02:39:14.439Z,10.30
2023-03-31T02:41:42.958Z,10.30
2023-03-31T02:44:11.825Z,10.20
2023-03-31T02:46:41.151Z,10.30
2023-03-31T02:49:11.484Z,10.30
2023-03-31T02:51:59.544Z,10.30
2023-03-31T02:55:08.758Z,10.30
2023-03-31T02:58:12.559Z,10.30
2023-03-31T03:01:41.456Z,10.00
2023-03-31T03:04:53.243Z,10.00
2023-03-31T03:07:40.427Z,10.10
2023-03-31T03:10:28.739Z,10.00
2023-03-31T03:13:49.918Z,10.00
2023-03-31T03:16:43.696Z,10.10
2023-03-31T03:19:17.836Z,10.20
2023-03-31T03:21:46.268Z,10.20
2023-03-31T03:24:15.831Z,10.10
2023-03-31T03:26:44.878Z,10.00
2023-03-31T03:29:14.855Z,10.00
2023-03-31T03:31:42.774Z,10.10
2023-03-31T03:34:10.204Z,10.10
2023-03-31T03:36:38.349Z,10.20
2023-03-31T03:39:07.834Z,10.20
2023-03-31T03:41:35.327Z,10.30
2023-03-31T03:44:02.421Z,10.20
2023-03-31T03:46:29.685Z,10.30
2023-03-31T03:48:56.835Z,10.20
2023-03-31T03:51:24.078Z,10.20
2023-03-31T03:53:51.111Z,10.20
2023-03-31T03:56:18.323Z,10.20
2023-03-31T03:58:45.381Z,10.10
2023-03-31T04:01:12.522Z,10.00
2023-03-31T04:03:39.593Z,10.00
2023-03-31T04:06:07.500Z,10.20
2023-03-31T04:08:34.954Z,10.20
2023-03-31T04:11:02.268Z,10.20
2023-03-31T04:13:29.359Z,10.10
2023-03-31T04:15:56.612Z,10.20
2023-03-31T04:18:23.676Z,10.10
2023-03-31T04:21:06.534Z,10.10
2023-03-31T04:23:34.968Z,10.10
2023-03-31T04:26:02.898Z,10.10
2023-03-31T04:28:35.085Z,10.10
2023-03-31T04:31:04.062Z,10.10
2023-03-31T04:33:31.160Z,10.10
2023-03-31T04:35:58.694Z,10.00
2023-03-31T04:38:27.420Z,10.00
2023-03-31T04:40:54.839Z,10.00
2023-03-31T04:43:22.286Z,10.00
2023-03-31T04:45:49.792Z,10.00
2023-03-31T04:48:17.166Z,10.10
2023-03-31T04:50:46.387Z,10.00
2023-03-31T04:53:13.460Z,10.00
2023-03-31T04:55:40.679Z,9.90
2023-03-31T04:58:07.768Z,10.00
2023-03-31T05:00:34.890Z,10.00
2023-03-31T05:03:02.070Z,10.10
2023-03-31T05:05:29.409Z,10.20
2023-03-31T05:07:56.613Z,10.20
2023-03-31T05:10:24.331Z,10.20
2023-03-31T05:12:51.423Z,10.30
2023-03-31T05:15:18.712Z,10.30
2023-03-31T05:17:45.876Z,10.30
2023-03-31T05:20:13.634Z,10.30
2023-03-31T05:22:43.333Z,10.40
2023-03-31T05:25:14.626Z,10.50
2023-03-31T05:27:41.898Z,10.60
2023-03-31T05:30:09.732Z,10.60
2023-03-31T05:32:36.890Z,10.60
2023-03-31T05:35:04.256Z,10.70
2023-03-31T05:37:31.815Z,10.70
2023-03-31T05:39:59.122Z,10.70
2023-03-31T05:42:26.342Z,10.70
2023-03-31T05:44:53.413Z,10.70
2023-03-31T05:47:20.613Z,10.80
2023-03-31T05:49:47.646Z,10.90
2023-03-31T05:52:15.062Z,11.00
2023-03-31T05:54:43.248Z,11.20
2023-03-31T05:57:10.702Z,11.30
2023-03-31T05:59:38.511Z,11.40
2023-03-31T06:02:05.952Z,11.30
2023-03-31T06:04:33.190Z,11.50
2023-03-31T06:07:00.725Z,11.50
2023-03-31T06:09:28.792Z,11.50
2023-03-31T06:11:56.437Z,11.50
2023-03-31T06:14:23.726Z,11.70
2023-03-31T06:16:51.055Z,11.80
2023-03-31T06:19:18.211Z,11.70
2023-03-31T06:21:45.471Z,11.80
2023-03-31T06:24:12.603Z,11.90
2023-03-31T06:26:39.843Z,12.60
2023-03-31T06:29:06.921Z,12.40
2023-03-31T06:31:34.212Z,12.50
2023-03-31T06:34:01.311Z,12.80
2023-03-31T06:36:28.467Z,12.80
2023-03-31T06:38:55.698Z,12.80
2023-03-31T06:41:22.834Z,12.70
2023-03-31T06:43:50.188Z,12.60
2023-03-31T06:46:18.360Z,12.40
2023-03-31T06:48:45.481Z,12.40
2023-03-31T06:51:13.145Z,12.40
2023-03-31T06:53:40.395Z,12.30
2023-03-31T06:56:08.088Z,12.40
2023-03-31T06:58:35.742Z,12.20
2023-03-31T07:01:04.992Z,12.40
2023-03-31T07:03:33.287Z,12.60
2023-03-31T07:06:01.133Z,12.40
2023-03-31T07:08:28.583Z,12.40
2023-03-31T07:11:00.507Z,12.20
2023-03-31T07:13:28.398Z,12.20
2023-03-31T07:15:56.628Z,12.20
2023-03-31T07:18:34.245Z,12.00
2023-03-31T07:21:02.890Z,12.10
2023-03-31T07:23:30.266Z,12.00
2023-03-31T07:26:02.552Z,11.90
2023-03-31T07:28:31.189Z,11.90
2023-03-31T07:30:58.414Z,12.00
2023-03-31T07:33:26.005Z,12.00
2023-03-31T07:36:07.802Z,12.10
2023-03-31T07:38:39.463Z,12.10
2023-03-31T07:41:10.320Z,12.20
2023-03-31T07:43:37.625Z,12.20
2023-03-31T07:46:05.935Z,12.30
2023-03-31T07:48:34.284Z,12.30
2023-03-31T07:51:01.670Z,12.50
2023-03-31T07:53:34.017Z,12.60
2023-03-31T07:56:01.535Z,12.60
2023-03-31T07:58:29.225Z,13.00
2023-03-31T08:00:56.351Z,13.00
2023-03-31T08:03:23.404Z,13.10
2023-03-31T08:05:54.331Z,13.20
2023-03-31T08:08:21.698Z,13.20
2023-03-31T08:10:49.356Z,13.20
2023-03-31T08:13:16.460Z,13.00
2023-03-31T08:15:50.076Z,13.10
2023-03-31T08:18:17.367Z,13.50
2023-03-31T08:20:44.415Z,13.50
2023-03-31T08:23:12.205Z,13.20
2023-03-31T08:25:39.340Z,13.20
2023-03-31T08:28:06.986Z,13.00
2023-03-31T08:30:34.480Z,13.00
2023-03-31T08:33:02.117Z,13.00
2023-03-31T08:35:29.332Z,12.90
2023-03-31T08:37:56.535Z,12.80
2023-03-31T08:40:27.494Z,12.80
2023-03-31T08:43:08.914Z,12.90
2023-03-31T08:45:41.603Z,12.90
2023-03-31T08:48:27.202Z,12.90
2023-03-31T08:51:00.437Z,12.80
2023-03-31T08:53:33.130Z,12.70
2023-03-31T08:56:01.618Z,12.60
2023-03-31T08:58:44.224Z,12.50
2023-03-31T09:01:56.028Z,12.30
2023-03-31T09:05:22.259Z,12.40
2023-03-31T09:08:35.305Z,12.40
2023-03-31T09:11:33.998Z,12.50
2023-03-31T09:14:25.430Z,12.50
2023-03-31T09:17:32.523Z,12.50
2023-03-31T09:20:20.262Z,12.50
2023-03-31T09:22:52.528Z,12.50
2023-03-31T09:25:25.501Z,12.50
2023-03-31T09:27:59.192Z,12.50
2023-03-31T09:30:31.535Z,12.60
2023-03-31T09:33:32.231Z,12.60
2023-03-31T09:36:09.041Z,12.50
2023-03-31T09:38:36.851Z,12.40
2023-03-31T09:41:05.465Z,12.30
2023-03-31T09:43:38.604Z,12.40
2023-03-31T09:46:28.294Z,12.40
2023-03-31T09:49:07.055Z,12.60
2023-03-31T09:51:37.497Z,12.60
2023-03-31T09:54:39.153Z,12.60
2023-03-31T09:57:16.264Z,12.90
2023-03-31T09:59:44.231Z,12.90
2023-03-31T10:02:37.958Z,13.00
2023-03-31T10:05:08.403Z,13.50
2023-03-31T10:07:36.002Z,13.30
2023-03-31T10:10:03.928Z,13.30
2023-03-31T10:12:32.109Z,13.30
2023-03-31T10:15:25.809Z,13.20
2023-03-31T10:17:55.417Z,13.30
2023-03-31T10:20:37.488Z,13.20
2023-03-31T10:23:41.612Z,13.10
2023-03-31T10:26:17.637Z,13.00
2023-03-31T10:28:45.531Z,12.90
2023-03-31T10:31:12.970Z,12.70
2023-03-31T10:33:45.405Z,12.70
2023-03-31T10:36:29.137Z,12.80
2023-03-31T10:38:57.118Z,12.70
2023-03-31T10:41:30.972Z,12.70
2023-03-31T10:44:00.879Z,12.80
2023-03-31T10:46:47.929Z,13.00
2023-03-31T10:49:39.603Z,13.00
2023-03-31T10:52:17.997Z,13.00
2023-03-31T10:54:50.444Z,13.00
2023-03-31T10:57:20.509Z,13.00
2023-03-31T11:00:21.946Z,13.10
2023-03-31T11:03:39.776Z,13.20
2023-03-31T11:06:39.497Z,13.10
2023-03-31T11:09:43.730Z,13.00
2023-03-31T11:12:52.402Z,13.00
2023-03-31T11:15:27.782Z,13.40
2023-03-31T11:18:36.250Z,13.90
2023-03-31T11:21:57.911Z,14.30
2023-03-31T11:25:33.140Z,14.10
2023-03-31T11:28:41.256Z,14.20
2023-03-31T11:31:44.685Z,14.50
2023-03-31T12:00:36.073Z,15.00
2023-03-31T12:03:20.038Z,14.20
2023-03-31T12:06:03.276Z,14.10
2023-03-31T12:09:09.377Z,13.50
2023-03-31T12:11:45.623Z,13.10
2023-03-31T12:14:25.979Z,12.50
2023-03-31T12:16:58.171Z,12.00
2023-03-31T12:19:35.923Z,11.60
2023-03-31T12:22:15.888Z,10.70
2023-03-31T12:24:43.035Z,11.00
2023-03-31T12:27:40.524Z,11.80
2023-03-31T12:30:28.065Z,12.40
2023-03-31T12:33:36.343Z,12.20
2023-03-31T12:36:55.264Z,12.70
2023-03-31T12:39:55.492Z,13.30
2023-03-31T12:42:52.948Z,13.20
2023-03-31T12:45:31.518Z,14.20
2023-03-31T12:48:49.491Z,14.30
2023-03-31T12:52:11.823Z,14.20
2023-03-31T12:55:11.980Z,13.80
2023-03-31T12:57:39.107Z,13.70
2023-03-31T13:00:27.008Z,13.50
2023-03-31T13:03:31.332Z,13.50
2023-03-31T13:05:58.506Z,13.50
2023-03-31T13:09:11.577Z,13.60
2023-03-31T13:11:44.667Z,13.60
2023-03-31T13:14:21.989Z,13.50
2023-03-31T13:16:52.854Z,13.60
2023-03-31T13:19:32.454Z,13.60
2023-03-31T13:22:01.906Z,13.60
2023-03-31T13:24:31.326Z,13.60
2023-03-31T13:27:19.726Z,13.70
2023-03-31T13:29:46.966Z,13.80
2023-03-31T13:32:26.952Z,14.10
2023-03-31T13:35:14.563Z,14.30
2023-03-31T13:38:33.663Z,14.50
2023-03-31T14:04:45.927Z,14.60
2023-03-31T14:07:22.010Z,14.60
2023-03-31T14:09:54.131Z,14.40
2023-03-31T14:12:33.073Z,14.50
2023-03-31T14:15:00.600Z,14.50
2023-03-31T14:17:35.878Z,14.50
2023-03-31T14:20:30.891Z,14.60
2023-03-31T14:23:34.181Z,14.70
2023-03-31T14:26:27.714Z,14.70
2023-03-31T14:29:45.859Z,14.60
2023-03-31T14:33:02.227Z,14.40
2023-03-31T14:36:02.769Z,14.30
2023-03-31T14:38:30.876Z,11.60
2023-03-31T14:41:01.319Z,9.50
2023-03-31T14:43:33.931Z,9.30
2023-03-31T14:48:35.848Z,9.20
2023-03-31T14:51:04.101Z,9.20
2023-03-31T14:53:31.284Z,9.30
2023-03-31T14:56:11.431Z,9.10
2023-03-31T14:58:46.935Z,9.20
2023-03-31T15:01:24.081Z,9.30
2023-03-31T15:03:53.661Z,9.50
2023-03-31T15:06:23.977Z,9.70
2023-03-31T15:08:55.234Z,10.00
2023-03-31T15:11:23.123Z,10.40
2023-03-31T15:14:04.389Z,10.60
2023-03-31T15:16:59.331Z,10.60
2023-03-31T15:19:36.236Z,10.60
2023-03-31T15:22:16.541Z,10.40
2023-03-31T15:24:43.981Z,10.40
2023-03-31T15:27:29.817Z,10.30
2023-03-31T15:30:04.385Z,10.30
2023-03-31T15:32:36.556Z,10.20
2023-03-31T15:35:18.760Z,9.80
2023-03-31T15:37:56.454Z,9.50
2023-03-31T15:40:32.704Z,9.20
2023-03-31T15:43:24.285Z,9.00
2023-03-31T15:46:00.532Z,8.90
2023-03-31T15:48:38.797Z,8.80
2023-03-31T15:51:17.847Z,8.80
2023-03-31T15:53:47.206Z,8.70
2023-03-31T15:56:42.293Z,8.80
2023-03-31T15:59:34.437Z,8.90
2023-03-31T16:02:19.231Z,8.90
2023-03-31T16:04:56.461Z,9.10
2023-03-31T16:07:31.828Z,9.20
2023-03-31T16:10:33.570Z,9.30
2023-03-31T16:13:04.951Z,9.30
2023-03-31T16:15:40.672Z,9.30
2023-03-31T16:18:16.259Z,9.30
2023-03-31T16:20:52.158Z,9.20
2023-03-31T16:23:28.165Z,9.20
2023-03-31T16:25:56.546Z,9.30
2023-03-31T16:28:26.474Z,9.30
2023-03-31T16:30:54.786Z,9.40
2023-03-31T16:33:26.196Z,9.40
2023-03-31T16:35:56.387Z,9.40
2023-03-31T16:38:32.669Z,9.40
2023-03-31T16:41:00.587Z,9.40
2023-03-31T16:43:30.724Z,9.50
2023-03-31T16:45:59.571Z,9.40
2023-03-31T16:48:28.836Z,9.50
2023-03-31T16:50:58.724Z,9.50
2023-03-31T16:53:29.283Z,9.50
2023-03-31T16:55:57.065Z,9.50
2023-03-31T16:58:24.876Z,9.60
2023-03-31T17:00:52.314Z,9.70
2023-03-31T17:03:20.641Z,9.70
2023-03-31T17:05:50.991Z,9.70
2023-03-31T17:08:18.399Z,9.80
2023-03-31T17:10:58.205Z,9.80
2023-03-31T17:13:25.644Z,9.80
2023-03-31T17:16:01.385Z,9.80
2023-03-31T17:18:36.103Z,9.80
2023-03-31T17:21:05.566Z,9.90
2023-03-31T17:23:33.381Z,9.90
2023-03-31T17:26:01.078Z,9.90
2023-03-31T17:28:28.741Z,9.90
2023-03-31T17:30:55.996Z,10.00
2023-03-31T17:33:23.371Z,9.80
2023-03-31T17:35:50.773Z,9.80
2023-03-31T17:38:19.494Z,9.80
2023-03-31T17:40:47.729Z,9.90
2023-03-31T17:43:14.848Z,9.90
2023-03-31T17:45:41.912Z,9.80
2023-03-31T17:48:10.019Z,9.80
2023-03-31T17:50:38.304Z,9.80
2023-03-31T17:53:09.198Z,9.80
2023-03-31T17:55:38.518Z,9.80
2023-03-31T17:58:08.566Z,9.80
2023-03-31T18:00:35.906Z,9.50
2023-03-31T18:03:03.272Z,9.20
2023-03-31T18:07:59.519Z,9.00
2023-03-31T18:10:26.784Z,9.20
2023-03-31T18:12:55.089Z,9.00
2023-03-31T18:15:22.794Z,9.00
2023-03-31T18:17:50.734Z,8.90
2023-03-31T18:20:18.283Z,8.90
2023-03-31T18:22:45.616Z,8.80
2023-03-31T18:25:13.211Z,8.70
2023-03-31T18:27:40.352Z,8.90
2023-03-31T18:30:08.647Z,8.80
2023-03-31T18:32:35.922Z,8.70
2023-03-31T18:35:03.217Z,8.70
2023-03-31T18:37:30.306Z,8.70
2023-03-31T18:39:57.514Z,8.70
2023-03-31T18:42:25.849Z,8.60
2023-03-31T18:44:53.441Z,8.60
2023-03-31T18:47:21.595Z,8.50
2023-03-31T18:49:53.427Z,8.60
2023-03-31T18:52:20.807Z,8.60
2023-03-31T18:54:47.939Z,8.60
2023-03-31T18:57:15.139Z,8.50
2023-03-31T18:59:42.438Z,8.50
2023-03-31T19:02:14.671Z,8.60
2023-03-31T19:04:41.878Z,8.60
2023-03-31T19:07:08.987Z,8.40
2023-03-31T19:09:36.463Z,8.40
2023-03-31T19:12:04.455Z,8.30
2023-03-31T19:14:31.627Z,8.30
2023-03-31T19:16:58.975Z,8.30
2023-03-31T19:19:26.098Z,8.40
2023-03-31T19:21:53.232Z,8.30
2023-03-31T19:24:20.623Z,8.30
2023-03-31T19:26:47.750Z,8.30
2023-03-31T19:29:14.948Z,8.30
2023-03-31T19:31:42.373Z,8.40
2023-03-31T19:34:11.686Z,8.40
2023-03-31T19:36:39.110Z,8.30
2023-03-31T19:39:06.700Z,8.30
2023-03-31T19:41:34.854Z,8.40
2023-03-31T19:44:02.102Z,8.40
2023-03-31T19:46:29.665Z,8.40
2023-03-31T19:48:57.145Z,8.40
2023-03-31T19:51:24.192Z,8.40
2023-03-31T19:53:52.145Z,8.50
2023-03-31T19:56:19.330Z,8.50
2023-03-31T19:58:47.213Z,8.50
2023-03-31T20:01:23.318Z,8.50
2023-03-31T20:03:53.508Z,8.60
2023-03-31T20:06:23.412Z,8.60
2023-03-31T20:08:59.540Z,8.60
2023-03-31T20:11:30.977Z,8.60
2023-03-31T20:13:59.021Z,8.50
2023-03-31T20:16:28.264Z,8.60
2023-03-31T20:19:04.527Z,8.60
2023-03-31T20:21:34.070Z,8.50
2023-03-31T20:24:01.527Z,8.60
2023-03-31T20:26:30.400Z,8.60
2023-03-31T20:28:58.918Z,8.70
2023-03-31T20:31:28.938Z,8.70
2023-03-31T20:33:57.432Z,8.60
2023-03-31T20:36:29.100Z,8.70
2023-03-31T20:38:57.195Z,8.80
2023-03-31T20:41:29.796Z,8.80
2023-03-31T20:43:57.112Z,8.80
2023-03-31T20:46:25.007Z,8.80
2023-03-31T20:48:57.257Z,8.80
2023-03-31T20:51:29.853Z,8.90
2023-03-31T20:53:58.192Z,8.90
2023-03-31T20:56:28.056Z,8.80
2023-03-31T20:58:57.784Z,8.80
2023-03-31T21:01:27.688Z,8.90
2023-03-31T21:03:55.118Z,8.90
2023-03-31T21:06:22.305Z,8.90
2023-03-31T21:08:53.474Z,8.90
2023-03-31T21:11:22.784Z,8.90
2023-03-31T21:13:50.046Z,8.90
2023-03-31T21:16:17.863Z,8.80
2023-03-31T21:18:45.058Z,8.90
2023-03-31T21:21:15.066Z,8.90
2023-03-31T21:23:42.738Z,8.80
2023-03-31T21:26:13.653Z,8.80
2023-03-31T21:28:40.744Z,8.90
2023-03-31T21:31:10.694Z,8.80
2023-03-31T21:33:39.690Z,8.80
2023-03-31T21:36:09.767Z,8.80
2023-03-31T21:38:37.237Z,8.70
2023-03-31T21:41:09.497Z,8.70
2023-03-31T21:43:37.342Z,8.70
2023-03-31T21:46:05.149Z,8.60
2023-03-31T21:48:34.592Z,8.70
2023-03-31T21:51:03.210Z,8.60
2023-03-31T21:53:31.394Z,8.60
2023-03-31T21:55:58.882Z,8.50
2023-03-31T21:58:28.962Z,8.50
2023-03-31T22:01:02.210Z,8.50
2023-03-31T22:03:32.190Z,8.50
2023-03-31T22:06:00.306Z,8.50
2023-03-31T22:08:28.068Z,8.40
2023-03-31T22:10:56.448Z,8.40
2023-03-31T22:13:24.485Z,8.50
2023-03-31T22:15:51.691Z,8.50
2023-03-31T22:18:19.394Z,8.50
2023-03-31T22:20:47.173Z,8.40
2023-03-31T22:23:15.142Z,8.40
2023-03-31T22:25:42.375Z,8.40
2023-03-31T22:28:09.816Z,8.40
2023-03-31T22:30:37.078Z,8.40
2023-03-31T22:33:04.402Z,8.50
2023-03-31T22:35:31.759Z,8.50
2023-03-31T22:37:59.163Z,8.50
2023-03-31T22:40:26.270Z,8.50
2023-03-31T22:42:54.958Z,8.50
2023-03-31T22:45:22.030Z,8.50
2023-03-31T22:47:49.454Z,8.40
2023-03-31T22:50:16.651Z,8.50
2023-03-31T22:52:45.509Z,8.50
2023-03-31T22:55:12.718Z,8.40
2023-03-31T22:57:39.970Z,8.30
2023-03-31T23:00:08.017Z,8.30
2023-03-31T23:02:35.123Z,8.30
2023-03-31T23:05:02.405Z,8.30
2023-03-31T23:07:30.438Z,8.30
2023-03-31T23:09:57.534Z,8.30
2023-03-31T23:12:28.571Z,8.30
2023-03-31T23:14:56.120Z,8.30
2023-03-31T23:17:23.734Z,8.30
2023-03-31T23:19:51.336Z,8.30
2023-03-31T23:22:18.979Z,8.30
2023-03-31T23:24:48.535Z,8.20
2023-03-31T23:27:15.593Z,8.30
2023-03-31T23:29:42.647Z,8.20
2023-03-31T23:32:09.789Z,8.20
2023-03-31T23:34:41.622Z,8.20
2023-03-31T23:37:13.541Z,8.10
2023-03-31T23:39:40.693Z,8.10
2023-03-31T23:42:08.797Z,7.90
2023-03-31T23:44:38.988Z,8.00
2023-03-31T23:47:06.678Z,7.80
2023-03-31T23:49:33.888Z,7.70
2023-03-31T23:52:01.439Z,7.70
2023-03-31T23:54:29.005Z,7.70
2023-03-31T23:56:56.368Z,7.70
2023-03-31T23:59:23.610Z,7.60
